Latest Coastal Weather Observations for Rosslyn Bay Harbour

IDQ60701

Issued at 9:02 am EST Monday 19 April 2021 (issued every 10 minutes, with the page automatically refreshed every 10 minutes)

About coastal observations | Map of coastal stations | Coastal observations for QLD | Marine services | Other Formats
Station Details ID: 033208 Name: ROSSLYN BAY NTC AWS Lat: -23.16 Lon: 150.79 Height: 0.0 m
Data from the previous 72 hours. | See also: Recent months for locations in Queensland
Date/Time
EST
Wind Sea
Height
m
Swell Vis
km
Cloud Weather Temp
°C
Press
MSL
hPa
Rain since
9am
mm
Dir  Spd
kts
Gust
kts
Height
m
Period
s
Dir
19/09:00am S 4 11 - - - - - - - 22.5 1017.3 -
19/08:30am SSW 3 7 - - - - - - - 21.8 1017.1 -
19/08:00am SSW 4 7 - - - - - - - 20.8 1017.0 -
19/07:30am SSW 3 7 - - - - - - - 20.2 1016.6 -
19/07:00am SSW 3 8 - - - - - - - 19.6 1016.4 -
19/06:30am SSW 4 7 - - - - - - - 19.4 1016.1 -
19/06:00am SSW 5 9 - - - - - - - 19.6 1015.7 -
19/05:30am SSW 5 8 - - - - - - - 19.8 1015.4 -
19/05:00am SSW 3 7 - - - - - - - 20.0 1015.2 -
19/04:30am SSW 5 9 - - - - - - - 20.9 1014.8 -
19/04:00am S 4 11 - - - - - - - 22.4 1014.6 -
19/03:30am S 5 12 - - - - - - - 22.8 1014.6 -
19/03:00am S 4 11 - - - - - - - 23.2 1014.7 -
19/02:30am SSW 4 8 - - - - - - - 22.3 1014.7 -
19/02:00am S 5 9 - - - - - - - 23.4 1014.9 -
19/01:30am SSW 3 10 - - - - - - - 24.0 1015.1 -
19/01:00am S 3 9 - - - - - - - 24.0 1015.3 -
19/12:30am SSW 3 7 - - - - - - - 24.0 1015.4 -
19/12:00am S 5 10 - - - - - - - 24.5 1015.5 -
 
Date/Time
EST
Wind Sea
Height
m
Swell Vis
km
Cloud Weather Temp
°C
Press
MSL
hPa
Rain since
9am
mm
Dir  Spd
kts
Gust
kts
Height
m
Period
s
Dir
18/11:30pm S 7 11 - - - - - - - 24.7 1015.5 -
18/11:00pm S 5 9 - - - - - - - 24.8 1015.8 -
18/10:30pm S 3 8 - - - - - - - 24.8 1015.9 -
18/10:00pm S 4 8 - - - - - - - 24.7 1016.1 -
18/09:30pm S 1 4 - - - - - - - 24.5 1016.2 -
18/09:00pm S 2 7 - - - - - - - 24.5 1016.1 -
18/08:30pm S 1 5 - - - - - - - 24.6 1016.0 -
18/08:00pm S 1 5 - - - - - - - 24.5 1015.8 -
18/07:30pm S 2 5 - - - - - - - 24.6 1015.4 -
18/07:00pm CALM 0 3 - - - - - - - 24.6 1015.0 -
18/06:30pm SSE 1 7 - - - - - - - 24.8 1014.6 -
18/06:00pm SSE 1 5 - - - - - - - 24.6 1014.4 -
18/05:30pm CALM 0 3 - - - - - - - 24.9 1014.0 -
18/05:00pm E 1 9 - - - - - - - 24.8 1013.8 -
18/04:30pm ENE 1 6 - - - - - - - 25.2 1013.5 -
18/04:00pm E 2 8 - - - - - - - 25.5 1013.5 -
18/03:30pm W 1 4 - - - - - - - 25.4 1013.4 -
18/03:00pm SW 1 5 - - - - - - - 24.8 1013.5 -
18/02:30pm SW 1 5 - - - - - - - 24.4 1013.6 -
18/02:00pm SW 1 5 - - - - - - - 24.6 1013.9 -
18/01:30pm S 2 7 - - - - - - - 24.7 1014.2 -
18/01:00pm S 2 6 - - - - - - - 24.5 1014.4 -
18/12:30pm S 2 7 - - - - - - - 24.4 1014.9 -
18/12:00pm S 4 7 - - - - - - - 23.5 1015.4 -
18/11:30am S 4 8 - - - - - - - 23.1 1015.8 -
18/11:00am S 5 8 - - - - - - - 23.0 1016.2 -
18/10:30am S 6 10 - - - - - - - 22.8 1016.5 -
18/10:00am S 4 9 - - - - - - - 23.5 1016.5 -
18/09:30am S 5 9 - - - - - - - 23.0 1016.6 -
18/09:00am S 4 8 - - - - - - - 22.8 1016.5 -
18/08:30am S 3 7 - - - - - - - 22.3 1016.3 -
18/08:00am S 3 7 - - - - - - - 21.7 1016.2 -
18/07:30am SSW 4 9 - - - - - - - 21.1 1015.9 -
18/07:00am SSW 4 8 - - - - - - - 20.6 1015.7 -
18/06:30am SSW 4 8 - - - - - - - 20.1 1015.5 -
18/06:00am SSW 5 9 - - - - - - - 20.0 1015.0 -
18/05:30am SSW 5 8 - - - - - - - 20.0 1014.8 -
18/05:00am SSW 5 9 - - - - - - - 20.4 1014.6 -
18/04:30am SSW 6 10 - - - - - - - 21.0 1014.5 -
18/04:00am SSW 5 7 - - - - - - - 20.8 1014.4 -
18/03:30am SSW 4 7 - - - - - - - 20.9 1014.4 -
18/03:00am SSW 4 7 - - - - - - - 21.1 1014.4 -
18/02:30am SSW 5 8 - - - - - - - 20.9 1014.6 -
18/02:00am SSW 5 8 - - - - - - - 21.1 1014.7 -
18/01:30am SSW 4 7 - - - - - - - 21.5 1015.1 -
18/01:00am SSW 2 6 - - - - - - - 21.5 1015.2 -
18/12:30am SSW 2 7 - - - - - - - 22.6 1015.3 -
18/12:00am S 4 7 - - - - - - - 24.7 1015.4 -
 
Date/Time
EST
Wind Sea
Height
m
Swell Vis
km
Cloud Weather Temp
°C
Press
MSL
hPa
Rain since
9am
mm
Dir  Spd
kts
Gust
kts
Height
m
Period
s
Dir
17/11:30pm S 3 8 - - - - - - - 24.7 1015.5 -
17/11:00pm S 2 6 - - - - - - - 24.7 1015.6 -
17/10:30pm S 2 6 - - - - - - - 24.8 1015.7 -
17/10:00pm S 1 5 - - - - - - - 24.8 1015.8 -
17/09:30pm S 1 5 - - - - - - - 24.9 1016.0 -
17/09:00pm SSW 1 5 - - - - - - - 24.9 1016.0 -
17/08:30pm SSW 1 7 - - - - - - - 24.9 1016.0 -
17/08:00pm SW 1 6 - - - - - - - 24.9 1015.9 -
17/07:30pm SSW 1 7 - - - - - - - 25.0 1015.5 -
17/07:00pm S 1 5 - - - - - - - 24.9 1015.3 -
17/06:30pm S 2 7 - - - - - - - 25.0 1015.0 -
17/06:00pm S 1 7 - - - - - - - 25.1 1014.8 -
17/05:30pm SSW 1 5 - - - - - - - 25.4 1014.7 -
17/05:00pm S 2 7 - - - - - - - 25.6 1014.5 -
17/04:30pm S 3 8 - - - - - - - 25.7 1014.3 -
17/04:00pm S 2 8 - - - - - - - 25.7 1014.1 -
17/03:30pm S 6 11 - - - - - - - 25.6 1014.2 -
17/03:00pm S 7 12 - - - - - - - 25.4 1014.1 -
17/02:30pm S 4 8 - - - - - - - 25.9 1014.2 -
17/02:00pm S 5 8 - - - - - - - 25.8 1014.3 -
17/01:30pm S 7 13 - - - - - - - 25.3 1014.5 -
17/01:00pm S 8 13 - - - - - - - 25.1 1014.7 -
17/12:30pm S 8 12 - - - - - - - 24.9 1015.1 -
17/12:00pm S 7 11 - - - - - - - 24.8 1015.5 -
17/11:30am S 6 11 - - - - - - - 25.0 1016.2 -
17/11:00am S 5 13 - - - - - - - 24.9 1016.7 -
17/10:30am S 4 9 - - - - - - - 24.9 1017.0 -
17/10:00am S 4 9 - - - - - - - 24.5 1017.0 -
17/09:30am S 4 7 - - - - - - - 24.1 1017.1 -
17/09:00am S 2 7 - - - - - - - 23.7 1017.0 -
17/08:30am S 2 8 - - - - - - - 23.5 1017.0 -
17/08:00am SSW 4 8 - - - - - - - 22.9 1016.8 -
17/07:30am SSW 4 9 - - - - - - - 22.7 1016.6 -
17/07:00am SSW 1 4 - - - - - - - 21.7 1016.3 -
17/06:30am SSW 1 5 - - - - - - - 21.6 1016.0 -
17/06:00am SSW 2 7 - - - - - - - 21.5 1015.8 -
17/05:30am SSW 2 5 - - - - - - - 21.0 1015.6 -
17/05:00am SSW 3 8 - - - - - - - 21.2 1015.4 -
17/04:30am S 3 7 - - - - - - - 24.5 1015.4 -
17/04:00am S 1 7 - - - - - - - 24.4 1015.1 -
17/03:30am S 1 5 - - - - - - - 24.4 1015.0 -
17/03:00am CALM 0 4 - - - - - - - 24.3 1015.0 -
17/02:30am S 1 6 - - - - - - - 24.4 1015.1 -
17/02:00am W 1 7 - - - - - - - 24.5 1015.5 -
17/01:30am S 2 8 - - - - - - - 24.5 1015.9 -
17/01:00am SW 1 6 - - - - - - - 24.6 1016.2 -
17/12:30am SW 1 6 - - - - - - - 24.7 1016.4 -
17/12:00am SW 1 8 - - - - - - - 24.7 1016.7 -
 
Date/Time
EST
Wind Sea
Height
m
Swell Vis
km
Cloud Weather Temp
°C
Press
MSL
hPa
Rain since
9am
mm
Dir  Spd
kts
Gust
kts
Height
m
Period
s
Dir
16/11:30pm W 1 6 - - - - - - - 24.8 1016.8 -
16/11:00pm SW 1 7 - - - - - - - 24.9 1017.0 -
16/10:30pm SSW 1 9 - - - - - - - 24.8 1017.1 -
16/10:00pm S 3 9 - - - - - - - 24.9 1017.1 -
16/09:30pm SW 1 6 - - - - - - - 25.0 1017.3 -
16/09:00pm W 1 5 - - - - - - - 24.9 1017.3 -
16/08:30pm W 1 6 - - - - - - - 25.0 1017.0 -
16/08:00pm SW 2 7 - - - - - - - 24.9 1016.7 -
16/07:30pm WSW 1 5 - - - - - - - 25.0 1016.3 -
16/07:00pm S 2 7 - - - - - - - 24.9 1015.9 -
16/06:30pm SW 1 4 - - - - - - - 24.9 1015.5 -
16/06:00pm SW 1 5 - - - - - - - 24.9 1015.3 -
16/05:30pm CALM 0 5 - - - - - - - 25.2 1015.0 -
16/05:00pm E 1 7 - - - - - - - 25.5 1014.8 -
16/04:30pm E 2 6 - - - - - - - 25.7 1014.6 -
16/04:00pm SSW 2 8 - - - - - - - 25.7 1014.4 -
16/03:30pm CALM 0 3 - - - - - - - 25.9 1014.4 -
16/03:00pm SSW 1 5 - - - - - - - 26.1 1014.6 -
16/02:30pm SSW 1 5 - - - - - - - 25.8 1014.4 -
16/02:00pm S 1 7 - - - - - - - 25.9 1014.6 -
16/01:30pm S 6 9 - - - - - - - 25.4 1014.8 -
16/01:00pm S 6 10 - - - - - - - 25.1 1015.2 -
16/12:30pm S 6 11 - - - - - - - 25.1 1015.6 -
16/12:00pm S 4 9 - - - - - - - 25.3 1016.0 -
16/11:30am S 4 8 - - - - - - - 25.0 1016.4 -
16/11:00am S 6 9 - - - - - - - 24.6 1016.8 -
16/10:30am S 4 10 - - - - - - - 24.2 1017.0 -
16/10:00am S 4 8 - - - - - - - 24.0 1017.2 -
16/09:30am S 4 7 - - - - - - - 24.0 1017.2 -

Other formats

Comma delimited format used in spreadsheet applications
http://www.bom.gov.au/fwo/IDQ60701/IDQ60701.95298.axf

JavaScript Object Notation format (JSON) in row-major order
http://www.bom.gov.au/fwo/IDQ60701/IDQ60701.95298.json

Data quality

Most of these data are generated automatically and are frequently updated. Quality checks on data are not normally performed. It is possible for incorrect values to appear. Refer to information at About Latest Weather Observations and please check the disclaimer before using these data.